sensor_id;sensor_type;location;lat;lon;timestamp;P1;durP1;ratioP1;P2;durP2;ratioP2
73015;SDS011;61893;50.074;14.440;2023-11-18T00:01:11;4.73;;;1.90;;
73015;SDS011;61893;50.074;14.440;2023-11-18T00:03:58;2.57;;;1.57;;
73015;SDS011;61893;50.074;14.440;2023-11-18T00:06:24;2.33;;;1.60;;
73015;SDS011;61893;50.074;14.440;2023-11-18T00:08:53;5.07;;;2.17;;
73015;SDS011;61893;50.074;14.440;2023-11-18T00:11:29;3.60;;;1.90;;
73015;SDS011;61893;50.074;14.440;2023-11-18T00:13:55;6.83;;;2.33;;
73015;SDS011;61893;50.074;14.440;2023-11-18T00:16:23;3.17;;;1.90;;
73015;SDS011;61893;50.074;14.440;2023-11-18T00:18:58;3.40;;;1.90;;
73015;SDS011;61893;50.074;14.440;2023-11-18T00:21:44;2.83;;;2.10;;
73015;SDS011;61893;50.074;14.440;2023-11-18T00:24:16;3.97;;;2.23;;
73015;SDS011;61893;50.074;14.440;2023-11-18T00:27:04;5.10;;;1.83;;
73015;SDS011;61893;50.074;14.440;2023-11-18T00:29:33;3.00;;;2.00;;
73015;SDS011;61893;50.074;14.440;2023-11-18T00:32:35;4.10;;;1.97;;
73015;SDS011;61893;50.074;14.440;2023-11-18T00:35:23;4.13;;;2.03;;
73015;SDS011;61893;50.074;14.440;2023-11-18T00:38:13;7.27;;;2.37;;
73015;SDS011;61893;50.074;14.440;2023-11-18T00:40:46;3.80;;;2.20;;
73015;SDS011;61893;50.074;14.440;2023-11-18T00:43:12;4.07;;;2.00;;
73015;SDS011;61893;50.074;14.440;2023-11-18T00:46:02;3.27;;;2.00;;
73015;SDS011;61893;50.074;14.440;2023-11-18T00:48:30;4.63;;;2.50;;
73015;SDS011;61893;50.074;14.440;2023-11-18T00:51:09;4.60;;;2.23;;
73015;SDS011;61893;50.074;14.440;2023-11-18T00:54:13;3.20;;;2.03;;
73015;SDS011;61893;50.074;14.440;2023-11-18T00:57:08;3.63;;;2.03;;
73015;SDS011;61893;50.074;14.440;2023-11-18T00:59:54;6.77;;;1.90;;
73015;SDS011;61893;50.074;14.440;2023-11-18T01:02:30;2.70;;;1.93;;
73015;SDS011;61893;50.074;14.440;2023-11-18T01:05:04;3.77;;;2.53;;
73015;SDS011;61893;50.074;14.440;2023-11-18T01:07:30;4.07;;;2.53;;
73015;SDS011;61893;50.074;14.440;2023-11-18T01:09:58;4.70;;;2.50;;
73015;SDS011;61893;50.074;14.440;2023-11-18T01:12:39;4.37;;;2.37;;
73015;SDS011;61893;50.074;14.440;2023-11-18T01:15:08;4.07;;;2.30;;
73015;SDS011;61893;50.074;14.440;2023-11-18T01:17:36;4.03;;;2.30;;
73015;SDS011;61893;50.074;14.440;2023-11-18T01:20:02;3.63;;;2.40;;
73015;SDS011;61893;50.074;14.440;2023-11-18T01:22:46;4.50;;;2.45;;
73015;SDS011;61893;50.074;14.440;2023-11-18T01:25:14;4.87;;;2.70;;
73015;SDS011;61893;50.074;14.440;2023-11-18T01:27:57;3.70;;;2.40;;
73015;SDS011;61893;50.074;14.440;2023-11-18T01:30:25;3.00;;;2.30;;
73015;SDS011;61893;50.074;14.440;2023-11-18T01:32:54;3.60;;;2.23;;
73015;SDS011;61893;50.074;14.440;2023-11-18T01:35:20;4.93;;;2.60;;
73015;SDS011;61893;50.074;14.440;2023-11-18T01:37:46;4.50;;;2.70;;
73015;SDS011;61893;50.074;14.440;2023-11-18T01:40:15;5.60;;;2.53;;
73015;SDS011;61893;50.074;14.440;2023-11-18T01:42:42;5.13;;;2.57;;
73015;SDS011;61893;50.074;14.440;2023-11-18T01:45:09;5.80;;;2.83;;
73015;SDS011;61893;50.074;14.440;2023-11-18T01:47:37;3.67;;;2.50;;
73015;SDS011;61893;50.074;14.440;2023-11-18T01:50:04;3.93;;;2.70;;
73015;SDS011;61893;50.074;14.440;2023-11-18T01:52:47;6.20;;;2.97;;
73015;SDS011;61893;50.074;14.440;2023-11-18T01:55:16;5.80;;;2.90;;
73015;SDS011;61893;50.074;14.440;2023-11-18T01:57:51;3.60;;;2.60;;
73015;SDS011;61893;50.074;14.440;2023-11-18T02:00:19;3.83;;;2.43;;
73015;SDS011;61893;50.074;14.440;2023-11-18T02:02:45;4.00;;;2.40;;
73015;SDS011;61893;50.074;14.440;2023-11-18T02:05:26;5.13;;;2.80;;
73015;SDS011;61893;50.074;14.440;2023-11-18T02:07:54;6.00;;;2.77;;
73015;SDS011;61893;50.074;14.440;2023-11-18T02:10:20;4.70;;;2.33;;
73015;SDS011;61893;50.074;14.440;2023-11-18T02:13:04;4.90;;;2.90;;
73015;SDS011;61893;50.074;14.440;2023-11-18T02:15:53;9.00;;;3.13;;
73015;SDS011;61893;50.074;14.440;2023-11-18T02:18:26;5.60;;;2.47;;
73015;SDS011;61893;50.074;14.440;2023-11-18T02:20:55;5.60;;;2.90;;
73015;SDS011;61893;50.074;14.440;2023-11-18T02:23:24;5.93;;;2.93;;
73015;SDS011;61893;50.074;14.440;2023-11-18T02:25:54;4.33;;;2.60;;
73015;SDS011;61893;50.074;14.440;2023-11-18T02:28:40;5.47;;;2.70;;
73015;SDS011;61893;50.074;14.440;2023-11-18T02:31:09;6.67;;;2.93;;
73015;SDS011;61893;50.074;14.440;2023-11-18T02:33:49;4.40;;;2.93;;
73015;SDS011;61893;50.074;14.440;2023-11-18T02:36:24;6.20;;;3.40;;
73015;SDS011;61893;50.074;14.440;2023-11-18T02:39:01;5.50;;;3.23;;
73015;SDS011;61893;50.074;14.440;2023-11-18T02:41:36;3.90;;;3.00;;
73015;SDS011;61893;50.074;14.440;2023-11-18T02:44:04;6.03;;;3.07;;
73015;SDS011;61893;50.074;14.440;2023-11-18T02:46:51;5.43;;;3.33;;
73015;SDS011;61893;50.074;14.440;2023-11-18T02:49:24;3.85;;;3.10;;
73015;SDS011;61893;50.074;14.440;2023-11-18T02:51:53;3.77;;;2.63;;
73015;SDS011;61893;50.074;14.440;2023-11-18T02:54:20;6.67;;;3.43;;
73015;SDS011;61893;50.074;14.440;2023-11-18T02:56:49;7.10;;;3.27;;
73015;SDS011;61893;50.074;14.440;2023-11-18T02:59:15;4.70;;;2.97;;
73015;SDS011;61893;50.074;14.440;2023-11-18T03:01:42;4.23;;;3.00;;
73015;SDS011;61893;50.074;14.440;2023-11-18T03:04:11;6.10;;;2.70;;
73015;SDS011;61893;50.074;14.440;2023-11-18T03:06:39;4.33;;;2.77;;
73015;SDS011;61893;50.074;14.440;2023-11-18T03:09:06;4.73;;;2.83;;
73015;SDS011;61893;50.074;14.440;2023-11-18T03:11:33;5.17;;;3.03;;
73015;SDS011;61893;50.074;14.440;2023-11-18T03:13:59;5.80;;;2.90;;
73015;SDS011;61893;50.074;14.440;2023-11-18T03:16:38;7.50;;;2.87;;
73015;SDS011;61893;50.074;14.440;2023-11-18T03:19:10;7.00;;;3.67;;
73015;SDS011;61893;50.074;14.440;2023-11-18T03:21:42;5.80;;;3.03;;
73015;SDS011;61893;50.074;14.440;2023-11-18T03:24:15;4.83;;;2.70;;
73015;SDS011;61893;50.074;14.440;2023-11-18T03:26:44;4.93;;;3.00;;
73015;SDS011;61893;50.074;14.440;2023-11-18T03:29:09;5.60;;;3.10;;
73015;SDS011;61893;50.074;14.440;2023-11-18T03:31:57;4.20;;;2.70;;
73015;SDS011;61893;50.074;14.440;2023-11-18T03:34:23;5.27;;;3.20;;
73015;SDS011;61893;50.074;14.440;2023-11-18T03:37:10;6.67;;;3.13;;
73015;SDS011;61893;50.074;14.440;2023-11-18T03:39:40;4.27;;;2.80;;
73015;SDS011;61893;50.074;14.440;2023-11-18T03:42:13;6.07;;;3.63;;
73015;SDS011;61893;50.074;14.440;2023-11-18T03:44:43;5.90;;;3.20;;
73015;SDS011;61893;50.074;14.440;2023-11-18T03:47:15;6.20;;;3.70;;
73015;SDS011;61893;50.074;14.440;2023-11-18T03:49:43;5.70;;;3.23;;
73015;SDS011;61893;50.074;14.440;2023-11-18T03:52:24;5.27;;;3.60;;
73015;SDS011;61893;50.074;14.440;2023-11-18T03:54:55;5.60;;;3.73;;
73015;SDS011;61893;50.074;14.440;2023-11-18T03:57:26;7.03;;;3.85;;
73015;SDS011;61893;50.074;14.440;2023-11-18T04:00:25;5.13;;;3.40;;
73015;SDS011;61893;50.074;14.440;2023-11-18T04:03:07;7.97;;;3.97;;
73015;SDS011;61893;50.074;14.440;2023-11-18T04:05:33;6.23;;;4.20;;
73015;SDS011;61893;50.074;14.440;2023-11-18T04:08:42;7.67;;;4.03;;
73015;SDS011;61893;50.074;14.440;2023-11-18T04:11:19;6.23;;;3.93;;
73015;SDS011;61893;50.074;14.440;2023-11-18T04:13:53;6.35;;;4.13;;
73015;SDS011;61893;50.074;14.440;2023-11-18T04:17:02;7.33;;;3.90;;
73015;SDS011;61893;50.074;14.440;2023-11-18T04:19:34;8.33;;;3.87;;
73015;SDS011;61893;50.074;14.440;2023-11-18T04:22:03;5.77;;;3.53;;
73015;SDS011;61893;50.074;14.440;2023-11-18T04:25:05;5.80;;;3.50;;
73015;SDS011;61893;50.074;14.440;2023-11-18T04:28:22;7.70;;;3.60;;
73015;SDS011;61893;50.074;14.440;2023-11-18T04:31:00;5.27;;;2.90;;
73015;SDS011;61893;50.074;14.440;2023-11-18T04:33:38;5.00;;;3.47;;
73015;SDS011;61893;50.074;14.440;2023-11-18T04:36:34;5.47;;;3.13;;
73015;SDS011;61893;50.074;14.440;2023-11-18T04:39:15;4.80;;;3.10;;
73015;SDS011;61893;50.074;14.440;2023-11-18T04:41:57;5.97;;;3.47;;
73015;SDS011;61893;50.074;14.440;2023-11-18T04:44:55;6.60;;;3.40;;
73015;SDS011;61893;50.074;14.440;2023-11-18T04:47:45;4.57;;;3.25;;
73015;SDS011;61893;50.074;14.440;2023-11-18T04:50:41;4.40;;;3.23;;
73015;SDS011;61893;50.074;14.440;2023-11-18T04:53:28;3.73;;;2.90;;
73015;SDS011;61893;50.074;14.440;2023-11-18T04:55:54;6.80;;;3.40;;
73015;SDS011;61893;50.074;14.440;2023-11-18T04:58:22;4.63;;;3.30;;
73015;SDS011;61893;50.074;14.440;2023-11-18T05:00:56;5.77;;;3.73;;
73015;SDS011;61893;50.074;14.440;2023-11-18T05:03:24;4.40;;;2.63;;
73015;SDS011;61893;50.074;14.440;2023-11-18T05:05:50;4.70;;;3.07;;
73015;SDS011;61893;50.074;14.440;2023-11-18T05:08:29;5.00;;;3.30;;
73015;SDS011;61893;50.074;14.440;2023-11-18T05:10:59;5.73;;;3.33;;
73015;SDS011;61893;50.074;14.440;2023-11-18T05:13:25;3.57;;;2.73;;
73015;SDS011;61893;50.074;14.440;2023-11-18T05:15:55;3.93;;;2.87;;
73015;SDS011;61893;50.074;14.440;2023-11-18T05:18:24;3.90;;;2.97;;
73015;SDS011;61893;50.074;14.440;2023-11-18T05:21:07;5.30;;;3.23;;
73015;SDS011;61893;50.074;14.440;2023-11-18T05:23:35;4.07;;;2.67;;
73015;SDS011;61893;50.074;14.440;2023-11-18T05:26:11;4.30;;;2.70;;
73015;SDS011;61893;50.074;14.440;2023-11-18T05:28:37;3.97;;;2.67;;
73015;SDS011;61893;50.074;14.440;2023-11-18T05:31:18;4.23;;;2.77;;
73015;SDS011;61893;50.074;14.440;2023-11-18T05:33:47;3.23;;;2.67;;
73015;SDS011;61893;50.074;14.440;2023-11-18T05:36:20;3.67;;;2.70;;
73015;SDS011;61893;50.074;14.440;2023-11-18T05:39:09;4.13;;;2.77;;
73015;SDS011;61893;50.074;14.440;2023-11-18T05:41:40;4.73;;;2.97;;
73015;SDS011;61893;50.074;14.440;2023-11-18T05:44:21;4.37;;;3.00;;
73015;SDS011;61893;50.074;14.440;2023-11-18T05:46:58;4.35;;;2.88;;
73015;SDS011;61893;50.074;14.440;2023-11-18T05:49:27;3.17;;;2.33;;
73015;SDS011;61893;50.074;14.440;2023-11-18T05:52:09;5.63;;;3.23;;
73015;SDS011;61893;50.074;14.440;2023-11-18T05:54:51;4.60;;;2.80;;
73015;SDS011;61893;50.074;14.440;2023-11-18T05:57:20;3.17;;;2.40;;
73015;SDS011;61893;50.074;14.440;2023-11-18T06:00:08;3.33;;;2.70;;
73015;SDS011;61893;50.074;14.440;2023-11-18T06:02:49;3.60;;;2.80;;
73015;SDS011;61893;50.074;14.440;2023-11-18T06:05:44;4.20;;;2.60;;
73015;SDS011;61893;50.074;14.440;2023-11-18T06:08:16;4.20;;;2.33;;
73015;SDS011;61893;50.074;14.440;2023-11-18T06:10:42;2.97;;;2.20;;
73015;SDS011;61893;50.074;14.440;2023-11-18T06:13:11;3.40;;;2.50;;
73015;SDS011;61893;50.074;14.440;2023-11-18T06:15:52;3.10;;;2.17;;
73015;SDS011;61893;50.074;14.440;2023-11-18T06:18:41;3.10;;;2.40;;
73015;SDS011;61893;50.074;14.440;2023-11-18T06:21:17;3.20;;;2.40;;
73015;SDS011;61893;50.074;14.440;2023-11-18T06:24:19;3.00;;;2.20;;
73015;SDS011;61893;50.074;14.440;2023-11-18T06:26:59;3.90;;;2.30;;
73015;SDS011;61893;50.074;14.440;2023-11-18T06:29:28;4.50;;;2.50;;
73015;SDS011;61893;50.074;14.440;2023-11-18T06:32:17;2.87;;;1.97;;
73015;SDS011;61893;50.074;14.440;2023-11-18T06:34:52;2.77;;;2.20;;
73015;SDS011;61893;50.074;14.440;2023-11-18T06:37:35;3.43;;;2.30;;
73015;SDS011;61893;50.074;14.440;2023-11-18T06:40:01;4.30;;;2.47;;
73015;SDS011;61893;50.074;14.440;2023-11-18T06:42:41;6.37;;;2.30;;
73015;SDS011;61893;50.074;14.440;2023-11-18T06:45:09;2.83;;;2.10;;
73015;SDS011;61893;50.074;14.440;2023-11-18T06:47:40;3.57;;;2.07;;
73015;SDS011;61893;50.074;14.440;2023-11-18T06:50:25;2.28;;;1.70;;
73015;SDS011;61893;50.074;14.440;2023-11-18T06:53:06;2.70;;;2.33;;
73015;SDS011;61893;50.074;14.440;2023-11-18T06:55:48;3.00;;;2.20;;
73015;SDS011;61893;50.074;14.440;2023-11-18T06:58:14;2.83;;;1.97;;
73015;SDS011;61893;50.074;14.440;2023-11-18T07:00:40;2.17;;;1.80;;
73015;SDS011;61893;50.074;14.440;2023-11-18T07:04:02;2.63;;;1.80;;
73015;SDS011;61893;50.074;14.440;2023-11-18T07:06:34;2.70;;;1.90;;
73015;SDS011;61893;50.074;14.440;2023-11-18T07:09:19;3.53;;;1.73;;
73015;SDS011;61893;50.074;14.440;2023-11-18T07:11:51;2.40;;;1.73;;
73015;SDS011;61893;50.074;14.440;2023-11-18T07:14:42;2.90;;;1.80;;
73015;SDS011;61893;50.074;14.440;2023-11-18T07:17:10;1.80;;;1.43;;
73015;SDS011;61893;50.074;14.440;2023-11-18T07:19:59;3.10;;;1.53;;
73015;SDS011;61893;50.074;14.440;2023-11-18T07:22:25;3.33;;;1.20;;
73015;SDS011;61893;50.074;14.440;2023-11-18T07:25:13;2.13;;;1.50;;
73015;SDS011;61893;50.074;14.440;2023-11-18T07:27:42;2.00;;;1.50;;
73015;SDS011;61893;50.074;14.440;2023-11-18T07:30:10;3.30;;;2.30;;
73015;SDS011;61893;50.074;14.440;2023-11-18T07:32:39;2.30;;;1.60;;
73015;SDS011;61893;50.074;14.440;2023-11-18T07:35:10;3.30;;;1.50;;
73015;SDS011;61893;50.074;14.440;2023-11-18T07:37:53;2.43;;;1.67;;
73015;SDS011;61893;50.074;14.440;2023-11-18T07:40:44;2.97;;;1.87;;
73015;SDS011;61893;50.074;14.440;2023-11-18T07:43:14;4.27;;;2.00;;
73015;SDS011;61893;50.074;14.440;2023-11-18T07:47:05;3.40;;;2.00;;
73015;SDS011;61893;50.074;14.440;2023-11-18T07:50:40;4.17;;;1.70;;
73015;SDS011;61893;50.074;14.440;2023-11-18T07:53:06;3.10;;;2.00;;
73015;SDS011;61893;50.074;14.440;2023-11-18T07:55:53;4.03;;;1.97;;
73015;SDS011;61893;50.074;14.440;2023-11-18T07:59:11;2.70;;;1.90;;
73015;SDS011;61893;50.074;14.440;2023-11-18T08:03:07;3.00;;;2.00;;
73015;SDS011;61893;50.074;14.440;2023-11-18T08:06:51;2.97;;;1.87;;
73015;SDS011;61893;50.074;14.440;2023-11-18T08:09:26;6.33;;;2.10;;
73015;SDS011;61893;50.074;14.440;2023-11-18T08:11:56;2.63;;;2.00;;
73015;SDS011;61893;50.074;14.440;2023-11-18T08:14:28;2.50;;;1.90;;
73015;SDS011;61893;50.074;14.440;2023-11-18T08:16:54;3.90;;;2.00;;
73015;SDS011;61893;50.074;14.440;2023-11-18T08:20:07;3.87;;;2.00;;
73015;SDS011;61893;50.074;14.440;2023-11-18T08:22:43;4.30;;;2.10;;
73015;SDS011;61893;50.074;14.440;2023-11-18T08:25:36;4.63;;;2.78;;
73015;SDS011;61893;50.074;14.440;2023-11-18T08:28:09;5.47;;;2.30;;
73015;SDS011;61893;50.074;14.440;2023-11-18T08:31:18;2.47;;;1.90;;
73015;SDS011;61893;50.074;14.440;2023-11-18T08:33:44;11.87;;;2.20;;
73015;SDS011;61893;50.074;14.440;2023-11-18T08:36:13;4.27;;;2.10;;
73015;SDS011;61893;50.074;14.440;2023-11-18T08:38:53;3.27;;;2.20;;
73015;SDS011;61893;50.074;14.440;2023-11-18T08:41:46;2.43;;;2.07;;
73015;SDS011;61893;50.074;14.440;2023-11-18T08:44:32;4.10;;;1.83;;
73015;SDS011;61893;50.074;14.440;2023-11-18T08:47:29;3.53;;;2.00;;
73015;SDS011;61893;50.074;14.440;2023-11-18T08:50:15;4.13;;;2.20;;
73015;SDS011;61893;50.074;14.440;2023-11-18T08:53:15;4.33;;;2.27;;
73015;SDS011;61893;50.074;14.440;2023-11-18T08:56:22;5.43;;;2.33;;
73015;SDS011;61893;50.074;14.440;2023-11-18T08:59:30;2.53;;;1.60;;
73015;SDS011;61893;50.074;14.440;2023-11-18T09:02:20;3.43;;;1.90;;
73015;SDS011;61893;50.074;14.440;2023-11-18T09:04:49;2.63;;;1.97;;
73015;SDS011;61893;50.074;14.440;2023-11-18T09:07:40;6.80;;;2.50;;
73015;SDS011;61893;50.074;14.440;2023-11-18T09:10:21;5.60;;;2.43;;
73015;SDS011;61893;50.074;14.440;2023-11-18T09:13:24;5.27;;;2.23;;
73015;SDS011;61893;50.074;14.440;2023-11-18T09:16:40;6.07;;;2.30;;
73015;SDS011;61893;50.074;14.440;2023-11-18T09:19:09;6.07;;;2.90;;
73015;SDS011;61893;50.074;14.440;2023-11-18T09:21:48;6.30;;;2.37;;
73015;SDS011;61893;50.074;14.440;2023-11-18T09:25:18;2.13;;;1.73;;
73015;SDS011;61893;50.074;14.440;2023-11-18T09:28:54;2.67;;;1.90;;
73015;SDS011;61893;50.074;14.440;2023-11-18T09:31:21;2.50;;;1.93;;
73015;SDS011;61893;50.074;14.440;2023-11-18T09:33:52;2.83;;;2.20;;
73015;SDS011;61893;50.074;14.440;2023-11-18T09:36:25;2.60;;;2.27;;
73015;SDS011;61893;50.074;14.440;2023-11-18T09:38:59;4.73;;;1.90;;
73015;SDS011;61893;50.074;14.440;2023-11-18T09:41:25;4.33;;;2.40;;
73015;SDS011;61893;50.074;14.440;2023-11-18T09:44:35;2.87;;;1.90;;
73015;SDS011;61893;50.074;14.440;2023-11-18T09:47:43;3.20;;;2.07;;
73015;SDS011;61893;50.074;14.440;2023-11-18T09:50:33;5.57;;;2.37;;
73015;SDS011;61893;50.074;14.440;2023-11-18T09:53:44;7.03;;;2.50;;
73015;SDS011;61893;50.074;14.440;2023-11-18T10:02:39;4.33;;;2.73;;
73015;SDS011;61893;50.074;14.440;2023-11-18T10:06:14;6.00;;;2.40;;
73015;SDS011;61893;50.074;14.440;2023-11-18T10:09:37;2.53;;;2.07;;
73015;SDS011;61893;50.074;14.440;2023-11-18T10:13:09;4.23;;;2.53;;
73015;SDS011;61893;50.074;14.440;2023-11-18T10:16:27;3.13;;;2.47;;
73015;SDS011;61893;50.074;14.440;2023-11-18T10:19:56;5.37;;;2.30;;
73015;SDS011;61893;50.074;14.440;2023-11-18T10:23:06;4.77;;;2.57;;
73015;SDS011;61893;50.074;14.440;2023-11-18T10:26:53;7.23;;;2.77;;
73015;SDS011;61893;50.074;14.440;2023-11-18T10:30:32;2.77;;;2.27;;
73015;SDS011;61893;50.074;14.440;2023-11-18T10:33:26;3.57;;;2.50;;
73015;SDS011;61893;50.074;14.440;2023-11-18T10:36:18;4.93;;;2.50;;
73015;SDS011;61893;50.074;14.440;2023-11-18T10:39:00;4.68;;;2.42;;
73015;SDS011;61893;50.074;14.440;2023-11-18T10:41:59;5.57;;;2.50;;
73015;SDS011;61893;50.074;14.440;2023-11-18T10:44:57;7.00;;;3.37;;
73015;SDS011;61893;50.074;14.440;2023-11-18T10:48:08;3.70;;;2.70;;
73015;SDS011;61893;50.074;14.440;2023-11-18T10:51:41;3.78;;;2.40;;
73015;SDS011;61893;50.074;14.440;2023-11-18T10:55:09;3.67;;;2.70;;
73015;SDS011;61893;50.074;14.440;2023-11-18T10:57:38;4.63;;;2.88;;
73015;SDS011;61893;50.074;14.440;2023-11-18T11:00:49;6.00;;;2.70;;
73015;SDS011;61893;50.074;14.440;2023-11-18T11:03:55;3.40;;;2.20;;
73015;SDS011;61893;50.074;14.440;2023-11-18T11:07:08;3.37;;;2.37;;
73015;SDS011;61893;50.074;14.440;2023-11-18T11:10:14;3.80;;;2.30;;
73015;SDS011;61893;50.074;14.440;2023-11-18T11:12:48;5.03;;;2.27;;
73015;SDS011;61893;50.074;14.440;2023-11-18T11:15:23;6.53;;;2.60;;
73015;SDS011;61893;50.074;14.440;2023-11-18T11:18:21;3.77;;;2.50;;
73015;SDS011;61893;50.074;14.440;2023-11-18T11:21:17;3.13;;;2.35;;
73015;SDS011;61893;50.074;14.440;2023-11-18T11:24:11;4.20;;;2.33;;
73015;SDS011;61893;50.074;14.440;2023-11-18T11:30:08;3.97;;;2.00;;
73015;SDS011;61893;50.074;14.440;2023-11-18T11:36:10;4.50;;;2.43;;
73015;SDS011;61893;50.074;14.440;2023-11-18T11:39:01;6.07;;;3.17;;
73015;SDS011;61893;50.074;14.440;2023-11-18T11:41:35;4.23;;;2.87;;
73015;SDS011;61893;50.074;14.440;2023-11-18T11:44:54;4.53;;;2.93;;
73015;SDS011;61893;50.074;14.440;2023-11-18T11:54:51;4.43;;;2.90;;
73015;SDS011;61893;50.074;14.440;2023-11-18T11:58:50;5.80;;;2.97;;
73015;SDS011;61893;50.074;14.440;2023-11-18T12:02:18;4.30;;;2.63;;
73015;SDS011;61893;50.074;14.440;2023-11-18T12:05:31;4.63;;;2.70;;
73015;SDS011;61893;50.074;14.440;2023-11-18T12:09:47;4.13;;;2.83;;
73015;SDS011;61893;50.074;14.440;2023-11-18T12:13:15;4.07;;;2.90;;
73015;SDS011;61893;50.074;14.440;2023-11-18T12:16:06;4.55;;;3.15;;
73015;SDS011;61893;50.074;14.440;2023-11-18T12:18:44;4.50;;;2.93;;
73015;SDS011;61893;50.074;14.440;2023-11-18T12:21:54;7.07;;;3.70;;
73015;SDS011;61893;50.074;14.440;2023-11-18T12:24:38;4.37;;;3.20;;
73015;SDS011;61893;50.074;14.440;2023-11-18T12:27:08;8.60;;;3.37;;
73015;SDS011;61893;50.074;14.440;2023-11-18T12:29:42;4.43;;;3.07;;
73015;SDS011;61893;50.074;14.440;2023-11-18T12:41:31;3.57;;;2.80;;
73015;SDS011;61893;50.074;14.440;2023-11-18T12:49:24;3.95;;;3.00;;
73015;SDS011;61893;50.074;14.440;2023-11-18T12:52:03;5.33;;;3.10;;
73015;SDS011;61893;50.074;14.440;2023-11-18T12:54:36;5.70;;;3.60;;
73015;SDS011;61893;50.074;14.440;2023-11-18T12:57:09;5.90;;;3.30;;
73015;SDS011;61893;50.074;14.440;2023-11-18T12:59:59;4.10;;;2.90;;
73015;SDS011;61893;50.074;14.440;2023-11-18T13:03:04;4.77;;;2.97;;
73015;SDS011;61893;50.074;14.440;2023-11-18T13:05:37;4.27;;;3.10;;
73015;SDS011;61893;50.074;14.440;2023-11-18T13:08:05;4.27;;;2.90;;
73015;SDS011;61893;50.074;14.440;2023-11-18T13:10:47;6.57;;;3.63;;
73015;SDS011;61893;50.074;14.440;2023-11-18T13:13:26;5.30;;;3.30;;
73015;SDS011;61893;50.074;14.440;2023-11-18T13:16:02;5.40;;;3.37;;
73015;SDS011;61893;50.074;14.440;2023-11-18T13:18:44;4.47;;;3.40;;
73015;SDS011;61893;50.074;14.440;2023-11-18T13:21:23;7.57;;;3.50;;
73015;SDS011;61893;50.074;14.440;2023-11-18T13:23:57;8.25;;;4.05;;
73015;SDS011;61893;50.074;14.440;2023-11-18T13:26:23;6.20;;;3.60;;
73015;SDS011;61893;50.074;14.440;2023-11-18T13:29:06;6.70;;;3.83;;
73015;SDS011;61893;50.074;14.440;2023-11-18T13:31:43;6.77;;;3.90;;
73015;SDS011;61893;50.074;14.440;2023-11-18T13:34:35;5.77;;;3.70;;
73015;SDS011;61893;50.074;14.440;2023-11-18T13:37:05;6.70;;;3.40;;
73015;SDS011;61893;50.074;14.440;2023-11-18T13:39:54;5.17;;;3.53;;
73015;SDS011;61893;50.074;14.440;2023-11-18T13:42:22;5.60;;;3.90;;
73015;SDS011;61893;50.074;14.440;2023-11-18T13:44:49;5.70;;;3.57;;
73015;SDS011;61893;50.074;14.440;2023-11-18T13:47:29;6.73;;;3.77;;
73015;SDS011;61893;50.074;14.440;2023-11-18T13:50:07;8.10;;;3.60;;
73015;SDS011;61893;50.074;14.440;2023-11-18T13:52:50;4.93;;;3.33;;
73015;SDS011;61893;50.074;14.440;2023-11-18T13:55:23;6.63;;;4.00;;
73015;SDS011;61893;50.074;14.440;2023-11-18T13:58:10;7.10;;;3.67;;
73015;SDS011;61893;50.074;14.440;2023-11-18T14:00:56;6.83;;;4.10;;
73015;SDS011;61893;50.074;14.440;2023-11-18T14:07:08;5.27;;;3.50;;
73015;SDS011;61893;50.074;14.440;2023-11-18T14:09:43;6.13;;;3.80;;
73015;SDS011;61893;50.074;14.440;2023-11-18T14:12:25;6.30;;;3.70;;
73015;SDS011;61893;50.074;14.440;2023-11-18T14:15:06;6.53;;;3.70;;
73015;SDS011;61893;50.074;14.440;2023-11-18T14:17:47;5.33;;;3.70;;
73015;SDS011;61893;50.074;14.440;2023-11-18T14:20:33;9.27;;;4.60;;
73015;SDS011;61893;50.074;14.440;2023-11-18T14:23:19;6.87;;;4.03;;
73015;SDS011;61893;50.074;14.440;2023-11-18T14:26:07;6.33;;;3.93;;
73015;SDS011;61893;50.074;14.440;2023-11-18T14:28:35;6.50;;;4.00;;
73015;SDS011;61893;50.074;14.440;2023-11-18T14:31:11;7.23;;;4.23;;
73015;SDS011;61893;50.074;14.440;2023-11-18T14:33:39;7.67;;;4.40;;
73015;SDS011;61893;50.074;14.440;2023-11-18T14:36:14;6.18;;;4.15;;
73015;SDS011;61893;50.074;14.440;2023-11-18T14:39:21;6.10;;;3.63;;
73015;SDS011;61893;50.074;14.440;2023-11-18T14:42:02;5.97;;;3.90;;
73015;SDS011;61893;50.074;14.440;2023-11-18T14:44:34;7.20;;;4.00;;
73015;SDS011;61893;50.074;14.440;2023-11-18T14:47:28;7.80;;;4.23;;
73015;SDS011;61893;50.074;14.440;2023-11-18T14:51:34;5.93;;;3.90;;
73015;SDS011;61893;50.074;14.440;2023-11-18T14:54:34;7.47;;;4.50;;
73015;SDS011;61893;50.074;14.440;2023-11-18T14:57:14;7.23;;;4.10;;
73015;SDS011;61893;50.074;14.440;2023-11-18T14:59:55;7.07;;;4.40;;
73015;SDS011;61893;50.074;14.440;2023-11-18T15:03:12;7.33;;;3.70;;
73015;SDS011;61893;50.074;14.440;2023-11-18T15:06:34;6.20;;;4.50;;
73015;SDS011;61893;50.074;14.440;2023-11-18T15:09:32;7.33;;;4.17;;
73015;SDS011;61893;50.074;14.440;2023-11-18T15:12:09;7.37;;;4.03;;
73015;SDS011;61893;50.074;14.440;2023-11-18T15:15:07;7.80;;;3.20;;
73015;SDS011;61893;50.074;14.440;2023-11-18T15:17:46;7.63;;;4.27;;
73015;SDS011;61893;50.074;14.440;2023-11-18T15:20:39;11.70;;;5.03;;
73015;SDS011;61893;50.074;14.440;2023-11-18T15:23:10;8.13;;;4.70;;
73015;SDS011;61893;50.074;14.440;2023-11-18T15:25:36;9.30;;;4.57;;
73015;SDS011;61893;50.074;14.440;2023-11-18T15:28:05;10.90;;;5.00;;
73015;SDS011;61893;50.074;14.440;2023-11-18T15:30:38;8.67;;;5.17;;
73015;SDS011;61893;50.074;14.440;2023-11-18T15:33:26;10.17;;;5.10;;
73015;SDS011;61893;50.074;14.440;2023-11-18T15:36:17;8.10;;;5.10;;
73015;SDS011;61893;50.074;14.440;2023-11-18T15:41:43;11.37;;;4.87;;
73015;SDS011;61893;50.074;14.440;2023-11-18T15:45:00;14.73;;;5.47;;
73015;SDS011;61893;50.074;14.440;2023-11-18T15:48:13;7.87;;;4.73;;
73015;SDS011;61893;50.074;14.440;2023-11-18T15:51:17;10.90;;;5.30;;
73015;SDS011;61893;50.074;14.440;2023-11-18T15:53:52;11.07;;;5.20;;
73015;SDS011;61893;50.074;14.440;2023-11-18T15:56:27;8.83;;;5.13;;
73015;SDS011;61893;50.074;14.440;2023-11-18T15:59:14;9.57;;;5.33;;
73015;SDS011;61893;50.074;14.440;2023-11-18T16:02:50;17.60;;;5.70;;
73015;SDS011;61893;50.074;14.440;2023-11-18T16:05:41;9.70;;;5.73;;
73015;SDS011;61893;50.074;14.440;2023-11-18T16:08:40;12.27;;;6.03;;
73015;SDS011;61893;50.074;14.440;2023-11-18T16:11:59;11.17;;;6.30;;
73015;SDS011;61893;50.074;14.440;2023-11-18T16:15:14;8.80;;;5.47;;
73015;SDS011;61893;50.074;14.440;2023-11-18T16:18:09;10.00;;;6.22;;
73015;SDS011;61893;50.074;14.440;2023-11-18T16:20:37;11.53;;;5.80;;
73015;SDS011;61893;50.074;14.440;2023-11-18T16:23:16;12.00;;;6.60;;
73015;SDS011;61893;50.074;14.440;2023-11-18T16:25:44;10.93;;;6.40;;
73015;SDS011;61893;50.074;14.440;2023-11-18T16:28:43;11.30;;;6.77;;
73015;SDS011;61893;50.074;14.440;2023-11-18T16:31:24;17.47;;;7.00;;
73015;SDS011;61893;50.074;14.440;2023-11-18T16:33:53;13.47;;;7.50;;
73015;SDS011;61893;50.074;14.440;2023-11-18T16:36:31;13.57;;;7.67;;
73015;SDS011;61893;50.074;14.440;2023-11-18T16:39:33;15.80;;;7.13;;
73015;SDS011;61893;50.074;14.440;2023-11-18T16:42:13;12.03;;;7.07;;
73015;SDS011;61893;50.074;14.440;2023-11-18T16:44:49;14.43;;;8.13;;
73015;SDS011;61893;50.074;14.440;2023-11-18T16:47:15;17.27;;;8.87;;
73015;SDS011;61893;50.074;14.440;2023-11-18T16:49:41;19.03;;;8.93;;
73015;SDS011;61893;50.074;14.440;2023-11-18T16:52:09;19.73;;;10.20;;
73015;SDS011;61893;50.074;14.440;2023-11-18T16:54:35;26.43;;;10.23;;